sensor_id;sensor_type;location;lat;lon;timestamp;pressure;altitude;pressure_sealevel;temperature;humidity
40730;BME280;26418;50.070;8.436;2024-03-29T00:01:32;98171.59;;;6.32;80.71
40730;BME280;26418;50.070;8.436;2024-03-29T00:03:58;98167.44;;;6.25;81.04
40730;BME280;26418;50.070;8.436;2024-03-29T00:06:26;98164.47;;;6.27;81.85
40730;BME280;26418;50.070;8.436;2024-03-29T00:08:52;98143.13;;;6.22;81.94
40730;BME280;26418;50.070;8.436;2024-03-29T00:11:18;98132.25;;;6.18;81.92
40730;BME280;26418;50.070;8.436;2024-03-29T00:13:46;98119.28;;;6.20;82.49
40730;BME280;26418;50.070;8.436;2024-03-29T00:16:18;98119.91;;;6.17;82.48
40730;BME280;26418;50.070;8.436;2024-03-29T00:18:46;98107.78;;;6.11;82.72
40730;BME280;26418;50.070;8.436;2024-03-29T00:21:14;98109.69;;;6.10;82.75
40730;BME280;26418;50.070;8.436;2024-03-29T00:23:40;98120.41;;;6.10;83.05
40730;BME280;26418;50.070;8.436;2024-03-29T00:26:06;98112.97;;;6.07;83.12
40730;BME280;26418;50.070;8.436;2024-03-29T00:28:39;98126.25;;;6.12;82.99
40730;BME280;26418;50.070;8.436;2024-03-29T00:31:04;98130.03;;;6.11;83.34
40730;BME280;26418;50.070;8.436;2024-03-29T00:33:30;98118.50;;;6.11;83.34
40730;BME280;26418;50.070;8.436;2024-03-29T00:35:56;98104.44;;;6.05;83.45
40730;BME280;26418;50.070;8.436;2024-03-29T00:38:21;98107.78;;;6.02;83.64
40730;BME280;26418;50.070;8.436;2024-03-29T00:40:47;98107.13;;;6.05;83.63
40730;BME280;26418;50.070;8.436;2024-03-29T00:43:12;98103.34;;;6.06;83.60
40730;BME280;26418;50.070;8.436;2024-03-29T00:45:41;98111.41;;;6.15;83.24
40730;BME280;26418;50.070;8.436;2024-03-29T00:48:06;98114.25;;;6.19;83.14
40730;BME280;26418;50.070;8.436;2024-03-29T00:50:35;98112.06;;;6.21;83.47
40730;BME280;26418;50.070;8.436;2024-03-29T00:53:05;98099.25;;;6.18;83.06
40730;BME280;26418;50.070;8.436;2024-03-29T00:55:31;98096.09;;;6.24;83.27
40730;BME280;26418;50.070;8.436;2024-03-29T00:57:59;98107.94;;;6.32;83.01
40730;BME280;26418;50.070;8.436;2024-03-29T01:00:25;98078.25;;;6.20;82.92
40730;BME280;26418;50.070;8.436;2024-03-29T01:02:51;98093.72;;;6.32;82.36
40730;BME280;26418;50.070;8.436;2024-03-29T01:05:16;98089.13;;;6.32;82.87
40730;BME280;26418;50.070;8.436;2024-03-29T01:07:42;98095.31;;;6.33;82.78
40730;BME280;26418;50.070;8.436;2024-03-29T01:10:10;98091.66;;;6.28;82.83
40730;BME280;26418;50.070;8.436;2024-03-29T01:12:36;98101.78;;;6.32;83.54
40730;BME280;26418;50.070;8.436;2024-03-29T01:15:02;98085.00;;;6.35;83.96
40730;BME280;26418;50.070;8.436;2024-03-29T01:17:28;98094.66;;;6.36;84.16
40730;BME280;26418;50.070;8.436;2024-03-29T01:19:54;98096.38;;;6.40;84.63
40730;BME280;26418;50.070;8.436;2024-03-29T01:22:20;98103.16;;;6.47;83.79
40730;BME280;26418;50.070;8.436;2024-03-29T01:24:45;98094.66;;;6.44;83.26
40730;BME280;26418;50.070;8.436;2024-03-29T01:27:11;98084.38;;;6.47;82.54
40730;BME280;26418;50.070;8.436;2024-03-29T01:29:39;98090.53;;;6.47;80.73
40730;BME280;26418;50.070;8.436;2024-03-29T01:32:05;98073.47;;;6.43;81.62
40730;BME280;26418;50.070;8.436;2024-03-29T01:34:31;98066.22;;;6.43;81.83
40730;BME280;26418;50.070;8.436;2024-03-29T01:36:57;98053.94;;;6.34;81.60
40730;BME280;26418;50.070;8.436;2024-03-29T01:39:29;98059.44;;;6.37;81.62
40730;BME280;26418;50.070;8.436;2024-03-29T01:41:56;98052.34;;;6.33;82.30
40730;BME280;26418;50.070;8.436;2024-03-29T01:44:22;98050.28;;;6.29;82.39
40730;BME280;26418;50.070;8.436;2024-03-29T01:46:48;98035.75;;;6.31;82.28
40730;BME280;26418;50.070;8.436;2024-03-29T01:49:14;98024.56;;;6.20;82.34
40730;BME280;26418;50.070;8.436;2024-03-29T01:51:40;98026.78;;;6.18;82.81
40730;BME280;26418;50.070;8.436;2024-03-29T01:54:08;98024.56;;;6.20;83.33
40730;BME280;26418;50.070;8.436;2024-03-29T01:56:39;98024.41;;;6.25;82.95
40730;BME280;26418;50.070;8.436;2024-03-29T01:59:17;98031.69;;;6.24;83.19
40730;BME280;26418;50.070;8.436;2024-03-29T02:01:46;97999.47;;;6.16;82.79
40730;BME280;26418;50.070;8.436;2024-03-29T02:04:12;98015.72;;;6.28;83.11
40730;BME280;26418;50.070;8.436;2024-03-29T02:06:38;98033.72;;;6.27;82.64
40730;BME280;26418;50.070;8.436;2024-03-29T02:09:04;98051.53;;;6.32;82.77
40730;BME280;26418;50.070;8.436;2024-03-29T02:11:30;98048.72;;;6.37;82.17
40730;BME280;26418;50.070;8.436;2024-03-29T02:14:05;98040.28;;;6.48;81.80
40730;BME280;26418;50.070;8.436;2024-03-29T02:16:37;98050.25;;;6.47;81.71
40730;BME280;26418;50.070;8.436;2024-03-29T02:19:03;98070.94;;;6.55;81.58
40730;BME280;26418;50.070;8.436;2024-03-29T02:21:30;98077.41;;;6.54;81.64
40730;BME280;26418;50.070;8.436;2024-03-29T02:24:08;98086.25;;;6.55;81.80
40730;BME280;26418;50.070;8.436;2024-03-29T02:26:34;98079.47;;;6.57;82.00
40730;BME280;26418;50.070;8.436;2024-03-29T02:29:07;98085.63;;;6.58;81.53
40730;BME280;26418;50.070;8.436;2024-03-29T02:31:32;98085.81;;;6.53;81.82
40730;BME280;26418;50.070;8.436;2024-03-29T02:34:01;98081.06;;;6.50;82.11
40730;BME280;26418;50.070;8.436;2024-03-29T02:36:27;98083.91;;;6.53;82.21
40730;BME280;26418;50.070;8.436;2024-03-29T02:38:52;98079.47;;;6.57;82.09
40730;BME280;26418;50.070;8.436;2024-03-29T02:41:18;98072.66;;;6.60;81.98
40730;BME280;26418;50.070;8.436;2024-03-29T02:43:43;98063.66;;;6.65;81.62
40730;BME280;26418;50.070;8.436;2024-03-29T02:46:09;98067.41;;;6.72;80.53
40730;BME280;26418;50.070;8.436;2024-03-29T02:48:37;98065.81;;;6.80;79.63
40730;BME280;26418;50.070;8.436;2024-03-29T02:51:03;98065.19;;;6.83;78.66
40730;BME280;26418;50.070;8.436;2024-03-29T02:53:29;98059.16;;;6.86;78.40
40730;BME280;26418;50.070;8.436;2024-03-29T02:55:57;98050.59;;;6.93;77.51
40730;BME280;26418;50.070;8.436;2024-03-29T02:58:23;98052.97;;;6.95;77.39
40730;BME280;26418;50.070;8.436;2024-03-29T03:00:49;98040.78;;;6.97;76.86
40730;BME280;26418;50.070;8.436;2024-03-29T03:03:16;98026.84;;;7.04;76.43
40730;BME280;26418;50.070;8.436;2024-03-29T03:05:42;98023.03;;;7.05;76.51
40730;BME280;26418;50.070;8.436;2024-03-29T03:08:10;98015.94;;;7.09;76.19
40730;BME280;26418;50.070;8.436;2024-03-29T03:10:54;98017.13;;;7.20;75.78
40730;BME280;26418;50.070;8.436;2024-03-29T03:13:28;98008.56;;;7.18;75.96
40730;BME280;26418;50.070;8.436;2024-03-29T03:15:55;98032.34;;;7.16;75.80
40730;BME280;26418;50.070;8.436;2024-03-29T03:18:21;98073.47;;;7.08;76.26
40730;BME280;26418;50.070;8.436;2024-03-29T03:20:53;98100.53;;;7.03;76.87
40730;BME280;26418;50.070;8.436;2024-03-29T03:23:22;98100.72;;;6.98;77.56
40730;BME280;26418;50.070;8.436;2024-03-29T03:25:59;98091.53;;;6.99;78.31
40730;BME280;26418;50.070;8.436;2024-03-29T03:28:25;98072.72;;;6.99;79.34
40730;BME280;26418;50.070;8.436;2024-03-29T03:30:51;98077.44;;;7.02;79.40
40730;BME280;26418;50.070;8.436;2024-03-29T03:33:17;98072.72;;;6.99;80.25
40730;BME280;26418;50.070;8.436;2024-03-29T03:35:43;98080.28;;;7.05;81.13
40730;BME280;26418;50.070;8.436;2024-03-29T03:38:09;98057.03;;;7.10;80.97
40730;BME280;26418;50.070;8.436;2024-03-29T03:40:35;98061.16;;;7.07;80.99
40730;BME280;26418;50.070;8.436;2024-03-29T03:43:10;98063.84;;;7.07;80.44
40730;BME280;26418;50.070;8.436;2024-03-29T03:45:39;98060.81;;;7.08;80.21
40730;BME280;26418;50.070;8.436;2024-03-29T03:48:10;98053.56;;;7.09;79.63
40730;BME280;26418;50.070;8.436;2024-03-29T03:50:37;98050.69;;;7.05;79.82
40730;BME280;26418;50.070;8.436;2024-03-29T03:53:03;98067.16;;;7.04;80.00
40730;BME280;26418;50.070;8.436;2024-03-29T03:55:35;98089.28;;;7.10;79.96
40730;BME280;26418;50.070;8.436;2024-03-29T03:58:01;98111.13;;;7.08;79.49
40730;BME280;26418;50.070;8.436;2024-03-29T04:00:30;98106.50;;;7.08;80.03
40730;BME280;26418;50.070;8.436;2024-03-29T04:02:58;98089.13;;;7.06;80.30
40730;BME280;26418;50.070;8.436;2024-03-29T04:05:24;98083.28;;;7.04;80.87
40730;BME280;26418;50.070;8.436;2024-03-29T04:07:50;98070.94;;;7.12;83.84
40730;BME280;26418;50.070;8.436;2024-03-29T04:10:21;98080.59;;;7.04;83.62
40730;BME280;26418;50.070;8.436;2024-03-29T04:12:47;98073.47;;;7.08;85.06
40730;BME280;26418;50.070;8.436;2024-03-29T04:15:13;98072.69;;;7.07;85.79
40730;BME280;26418;50.070;8.436;2024-03-29T04:17:38;98060.88;;;7.00;85.80
40730;BME280;26418;50.070;8.436;2024-03-29T04:20:04;98043.19;;;6.90;86.49
40730;BME280;26418;50.070;8.436;2024-03-29T04:22:30;98039.72;;;6.89;87.64
40730;BME280;26418;50.070;8.436;2024-03-29T04:24:59;98044.81;;;6.82;87.92
40730;BME280;26418;50.070;8.436;2024-03-29T04:27:31;98044.47;;;6.84;88.83
40730;BME280;26418;50.070;8.436;2024-03-29T04:29:58;98057.75;;;6.80;88.96
40730;BME280;26418;50.070;8.436;2024-03-29T04:32:24;98049.56;;;6.76;89.66
40730;BME280;26418;50.070;8.436;2024-03-29T04:34:53;98039.44;;;6.82;90.52
40730;BME280;26418;50.070;8.436;2024-03-29T04:37:18;98035.16;;;6.81;90.72
40730;BME280;26418;50.070;8.436;2024-03-29T04:39:44;98044.16;;;6.85;92.01
40730;BME280;26418;50.070;8.436;2024-03-29T04:42:10;98046.81;;;6.85;92.14
40730;BME280;26418;50.070;8.436;2024-03-29T04:44:36;98037.81;;;6.90;92.72
40730;BME280;26418;50.070;8.436;2024-03-29T04:47:08;98038.78;;;6.85;93.16
40730;BME280;26418;50.070;8.436;2024-03-29T04:49:35;98019.03;;;6.81;94.20
40730;BME280;26418;50.070;8.436;2024-03-29T04:52:08;98014.78;;;6.80;94.91
40730;BME280;26418;50.070;8.436;2024-03-29T04:54:34;98016.84;;;6.74;95.32
40730;BME280;26418;50.070;8.436;2024-03-29T04:57:00;98022.06;;;6.71;95.75
40730;BME280;26418;50.070;8.436;2024-03-29T04:59:37;98012.75;;;6.68;96.71
40730;BME280;26418;50.070;8.436;2024-03-29T05:02:03;98023.31;;;6.73;97.76
40730;BME280;26418;50.070;8.436;2024-03-29T05:04:31;98025.72;;;6.75;96.96
40730;BME280;26418;50.070;8.436;2024-03-29T05:06:58;98023.19;;;6.70;96.95
40730;BME280;26418;50.070;8.436;2024-03-29T05:09:26;98034.06;;;6.73;96.80
40730;BME280;26418;50.070;8.436;2024-03-29T05:11:52;98040.25;;;6.74;96.79
40730;BME280;26418;50.070;8.436;2024-03-29T05:14:21;98038.34;;;6.74;96.90
40730;BME280;26418;50.070;8.436;2024-03-29T05:16:47;98048.75;;;6.76;96.73
40730;BME280;26418;50.070;8.436;2024-03-29T05:19:14;98038.34;;;6.74;97.01
40730;BME280;26418;50.070;8.436;2024-03-29T05:21:40;98056.66;;;6.81;96.83
40730;BME280;26418;50.070;8.436;2024-03-29T05:24:06;98044.81;;;6.82;97.31
40730;BME280;26418;50.070;8.436;2024-03-29T05:26:35;98046.53;;;6.78;97.68
40730;BME280;26418;50.070;8.436;2024-03-29T05:29:03;98048.75;;;6.76;97.98
40730;BME280;26418;50.070;8.436;2024-03-29T05:31:29;98041.16;;;6.78;99.16
40730;BME280;26418;50.070;8.436;2024-03-29T05:33:58;98045.59;;;6.83;99.66
40730;BME280;26418;50.070;8.436;2024-03-29T05:36:25;98058.88;;;6.79;99.84
40730;BME280;26418;50.070;8.436;2024-03-29T05:38:51;98053.81;;;6.78;100.00
40730;BME280;26418;50.070;8.436;2024-03-29T05:41:16;98065.06;;;6.80;100.00
40730;BME280;26418;50.070;8.436;2024-03-29T05:43:45;98054.25;;;6.88;100.00
40730;BME280;26418;50.070;8.436;2024-03-29T05:46:10;98060.59;;;6.84;100.00
40730;BME280;26418;50.070;8.436;2024-03-29T05:48:39;98049.38;;;6.82;100.00
40730;BME280;26418;50.070;8.436;2024-03-29T05:51:04;98064.06;;;6.84;100.00
40730;BME280;26418;50.070;8.436;2024-03-29T05:53:30;98071.81;;;6.86;100.00
40730;BME280;26418;50.070;8.436;2024-03-29T05:55:56;98068.81;;;6.87;100.00
40730;BME280;26418;50.070;8.436;2024-03-29T05:58:24;98078.59;;;6.92;100.00
40730;BME280;26418;50.070;8.436;2024-03-29T06:00:49;98089.00;;;7.02;100.00
40730;BME280;26418;50.070;8.436;2024-03-29T06:03:15;98085.69;;;6.97;100.00
40730;BME280;26418;50.070;8.436;2024-03-29T06:05:41;98073.50;;;6.99;100.00
40730;BME280;26418;50.070;8.436;2024-03-29T06:08:07;98084.53;;;7.06;100.00
40730;BME280;26418;50.070;8.436;2024-03-29T06:10:33;98083.13;;;7.09;100.00
40730;BME280;26418;50.070;8.436;2024-03-29T06:12:59;98091.53;;;6.99;100.00
40730;BME280;26418;50.070;8.436;2024-03-29T06:15:36;98110.16;;;7.04;100.00
40730;BME280;26418;50.070;8.436;2024-03-29T06:18:20;98107.94;;;7.06;100.00
40730;BME280;26418;50.070;8.436;2024-03-29T06:20:47;98097.19;;;7.06;100.00
40730;BME280;26418;50.070;8.436;2024-03-29T06:23:13;98097.97;;;7.06;100.00
40730;BME280;26418;50.070;8.436;2024-03-29T06:25:39;98097.00;;;7.11;100.00
40730;BME280;26418;50.070;8.436;2024-03-29T06:28:05;98106.03;;;7.15;100.00
40730;BME280;26418;50.070;8.436;2024-03-29T06:30:31;98100.66;;;7.15;100.00
40730;BME280;26418;50.070;8.436;2024-03-29T06:32:56;98102.69;;;7.18;100.00
40730;BME280;26418;50.070;8.436;2024-03-29T06:35:23;98091.47;;;7.16;100.00
40730;BME280;26418;50.070;8.436;2024-03-29T06:37:48;98105.06;;;7.20;100.00
40730;BME280;26418;50.070;8.436;2024-03-29T06:40:14;98091.63;;;7.20;100.00
40730;BME280;26418;50.070;8.436;2024-03-29T06:42:39;98088.59;;;7.21;100.00
40730;BME280;26418;50.070;8.436;2024-03-29T06:45:05;98099.31;;;7.30;100.00
40730;BME280;26418;50.070;8.436;2024-03-29T06:47:32;98103.28;;;7.33;100.00
40730;BME280;26418;50.070;8.436;2024-03-29T06:49:57;98098.81;;;7.37;100.00
40730;BME280;26418;50.070;8.436;2024-03-29T06:52:26;98070.25;;;7.23;100.00
40730;BME280;26418;50.070;8.436;2024-03-29T06:54:52;98091.16;;;7.48;100.00
40730;BME280;26418;50.070;8.436;2024-03-29T06:57:18;98095.69;;;7.56;100.00
40730;BME280;26418;50.070;8.436;2024-03-29T06:59:48;98101.88;;;7.57;100.00
40730;BME280;26418;50.070;8.436;2024-03-29T07:02:14;98097.88;;;7.63;100.00
40730;BME280;26418;50.070;8.436;2024-03-29T07:04:45;98092.34;;;7.68;100.00
40730;BME280;26418;50.070;8.436;2024-03-29T07:07:11;98102.09;;;7.72;100.00
40730;BME280;26418;50.070;8.436;2024-03-29T07:09:39;98098.28;;;7.74;100.00
40730;BME280;26418;50.070;8.436;2024-03-29T07:12:05;98104.75;;;7.81;99.99
40730;BME280;26418;50.070;8.436;2024-03-29T07:14:31;98102.53;;;7.83;99.42
40730;BME280;26418;50.070;8.436;2024-03-29T07:16:58;98100.00;;;7.78;99.73
40730;BME280;26418;50.070;8.436;2024-03-29T07:19:24;98102.03;;;7.81;99.77
40730;BME280;26418;50.070;8.436;2024-03-29T07:21:51;98105.38;;;7.78;99.74
40730;BME280;26418;50.070;8.436;2024-03-29T07:24:19;98101.91;;;7.78;100.00
40730;BME280;26418;50.070;8.436;2024-03-29T07:26:45;98101.78;;;7.74;100.00
40730;BME280;26418;50.070;8.436;2024-03-29T07:29:14;98107.44;;;7.81;100.00
40730;BME280;26418;50.070;8.436;2024-03-29T07:31:40;98098.25;;;7.82;100.00
40730;BME280;26418;50.070;8.436;2024-03-29T07:34:15;98088.59;;;7.81;100.00
40730;BME280;26418;50.070;8.436;2024-03-29T07:36:40;98097.66;;;7.98;100.00
40730;BME280;26418;50.070;8.436;2024-03-29T07:39:09;98094.75;;;8.03;100.00
40730;BME280;26418;50.070;8.436;2024-03-29T07:41:34;98096.59;;;8.11;100.00
40730;BME280;26418;50.070;8.436;2024-03-29T07:44:00;98087.41;;;8.12;100.00
40730;BME280;26418;50.070;8.436;2024-03-29T07:46:31;98095.31;;;8.17;100.00
40730;BME280;26418;50.070;8.436;2024-03-29T07:48:57;98094.63;;;8.21;100.00
40730;BME280;26418;50.070;8.436;2024-03-29T07:51:22;98100.13;;;8.24;100.00
40730;BME280;26418;50.070;8.436;2024-03-29T07:53:48;98094.56;;;8.29;100.00
40730;BME280;26418;50.070;8.436;2024-03-29T07:56:14;98091.06;;;8.29;100.00
40730;BME280;26418;50.070;8.436;2024-03-29T07:58:39;98090.19;;;8.25;100.00
40730;BME280;26418;50.070;8.436;2024-03-29T08:01:05;98086.88;;;8.19;100.00
40730;BME280;26418;50.070;8.436;2024-03-29T08:03:31;98103.91;;;8.11;100.00
40730;BME280;26418;50.070;8.436;2024-03-29T08:06:02;98087.63;;;8.07;100.00
40730;BME280;26418;50.070;8.436;2024-03-29T08:08:32;98093.78;;;8.08;100.00
40730;BME280;26418;50.070;8.436;2024-03-29T08:10:58;98091.88;;;8.08;100.00
40730;BME280;26418;50.070;8.436;2024-03-29T08:13:27;98095.69;;;8.07;100.00
40730;BME280;26418;50.070;8.436;2024-03-29T08:15:59;98093.19;;;8.02;100.00
40730;BME280;26418;50.070;8.436;2024-03-29T08:18:28;98097.78;;;8.01;100.00
40730;BME280;26418;50.070;8.436;2024-03-29T08:20:57;98095.88;;;8.02;100.00
40730;BME280;26418;50.070;8.436;2024-03-29T08:23:27;98101.41;;;8.06;100.00
40730;BME280;26418;50.070;8.436;2024-03-29T08:25:53;98105.94;;;8.14;100.00
40730;BME280;26418;50.070;8.436;2024-03-29T08:28:23;98111.59;;;8.21;100.00
40730;BME280;26418;50.070;8.436;2024-03-29T08:31:06;98113.00;;;8.18;100.00
40730;BME280;26418;50.070;8.436;2024-03-29T08:33:34;98117.88;;;8.25;100.00
40730;BME280;26418;50.070;8.436;2024-03-29T08:36:06;98121.94;;;8.31;100.00
40730;BME280;26418;50.070;8.436;2024-03-29T08:38:33;98124.44;;;8.37;100.00
40730;BME280;26418;50.070;8.436;2024-03-29T08:40:59;98127.75;;;8.42;100.00
40730;BME280;26418;50.070;8.436;2024-03-29T08:43:25;98123.47;;;8.41;100.00
40730;BME280;26418;50.070;8.436;2024-03-29T08:45:59;98114.28;;;8.42;100.00
40730;BME280;26418;50.070;8.436;2024-03-29T08:48:26;98134.72;;;8.43;100.00
40730;BME280;26418;50.070;8.436;2024-03-29T08:50:52;98136.25;;;8.44;100.00
40730;BME280;26418;50.070;8.436;2024-03-29T08:53:17;98141.97;;;8.43;100.00
40730;BME280;26418;50.070;8.436;2024-03-29T08:55:46;98153.56;;;8.43;100.00
40730;BME280;26418;50.070;8.436;2024-03-29T08:58:12;98150.06;;;8.43;100.00
40730;BME280;26418;50.070;8.436;2024-03-29T09:00:38;98158.28;;;8.46;100.00
40730;BME280;26418;50.070;8.436;2024-03-29T09:03:03;98157.44;;;8.55;100.00
40730;BME280;26418;50.070;8.436;2024-03-29T09:05:32;98162.44;;;8.65;100.00
40730;BME280;26418;50.070;8.436;2024-03-29T09:07:58;98174.56;;;8.71;100.00
40730;BME280;26418;50.070;8.436;2024-03-29T09:10:24;98180.78;;;8.72;100.00
40730;BME280;26418;50.070;8.436;2024-03-29T09:12:52;98192.56;;;8.79;100.00
40730;BME280;26418;50.070;8.436;2024-03-29T09:15:21;98200.47;;;8.85;100.00
40730;BME280;26418;50.070;8.436;2024-03-29T09:17:46;98194.63;;;8.83;100.00
40730;BME280;26418;50.070;8.436;2024-03-29T09:20:12;98194.97;;;8.81;100.00
40730;BME280;26418;50.070;8.436;2024-03-29T09:22:38;98195.75;;;8.81;100.00
40730;BME280;26418;50.070;8.436;2024-03-29T09:25:05;98199.03;;;8.87;100.00
40730;BME280;26418;50.070;8.436;2024-03-29T09:27:31;98196.00;;;8.89;100.00
40730;BME280;26418;50.070;8.436;2024-03-29T09:30:01;98192.63;;;8.92;100.00
40730;BME280;26418;50.070;8.436;2024-03-29T09:32:30;98198.28;;;8.99;100.00
40730;BME280;26418;50.070;8.436;2024-03-29T09:35:02;98197.75;;;9.18;100.00
40730;BME280;26418;50.070;8.436;2024-03-29T09:37:27;98201.97;;;9.40;100.00
40730;BME280;26418;50.070;8.436;2024-03-29T09:39:53;98207.94;;;9.58;100.00
40730;BME280;26418;50.070;8.436;2024-03-29T09:42:22;98204.03;;;9.68;100.00
40730;BME280;26418;50.070;8.436;2024-03-29T09:44:50;98204.56;;;9.74;100.00
40730;BME280;26418;50.070;8.436;2024-03-29T09:47:17;98211.91;;;9.73;100.00
40730;BME280;26418;50.070;8.436;2024-03-29T09:49:44;98216.28;;;9.66;100.00
40730;BME280;26418;50.070;8.436;2024-03-29T09:52:13;98217.41;;;9.65;100.00
40730;BME280;26418;50.070;8.436;2024-03-29T09:54:39;98223.13;;;9.63;100.00
40730;BME280;26418;50.070;8.436;2024-03-29T09:57:05;98230.34;;;9.71;100.00
40730;BME280;26418;50.070;8.436;2024-03-29T09:59:30;98227.09;;;9.78;100.00
40730;BME280;26418;50.070;8.436;2024-03-29T10:01:58;98219.22;;;9.85;100.00
40730;BME280;26418;50.070;8.436;2024-03-29T10:04:24;98219.34;;;10.01;100.00
40730;BME280;26418;50.070;8.436;2024-03-29T10:06:54;98221.66;;;10.28;100.00
40730;BME280;26418;50.070;8.436;2024-03-29T10:09:21;98225.69;;;10.59;100.00
40730;BME280;26418;50.070;8.436;2024-03-29T10:11:48;98230.25;;;10.83;100.00
40730;BME280;26418;50.070;8.436;2024-03-29T10:14:13;98236.03;;;10.97;99.43
40730;BME280;26418;50.070;8.436;2024-03-29T10:16:39;98227.88;;;11.10;95.54
40730;BME280;26418;50.070;8.436;2024-03-29T10:19:04;98236.88;;;11.14;94.67
40730;BME280;26418;50.070;8.436;2024-03-29T10:21:32;98244.84;;;11.23;94.79
40730;BME280;26418;50.070;8.436;2024-03-29T10:23:57;98250.25;;;11.23;93.46
40730;BME280;26418;50.070;8.436;2024-03-29T10:26:23;98231.28;;;11.07;93.91
40730;BME280;26418;50.070;8.436;2024-03-29T10:28:48;98240.97;;;11.08;94.75
40730;BME280;26418;50.070;8.436;2024-03-29T10:31:14;98238.59;;;11.06;95.25
40730;BME280;26418;50.070;8.436;2024-03-29T10:33:42;98225.19;;;11.10;95.83
40730;BME280;26418;50.070;8.436;2024-03-29T10:36:08;98225.41;;;11.33;97.49
40730;BME280;26418;50.070;8.436;2024-03-29T10:38:37;98231.53;;;11.62;95.48
40730;BME280;26418;50.070;8.436;2024-03-29T10:41:02;98222.88;;;11.88;93.50
40730;BME280;26418;50.070;8.436;2024-03-29T10:43:31;98223.34;;;12.06;90.23
40730;BME280;26418;50.070;8.436;2024-03-29T10:46:01;98214.31;;;12.18;89.87
40730;BME280;26418;50.070;8.436;2024-03-29T10:48:27;98220.78;;;12.14;86.85
40730;BME280;26418;50.070;8.436;2024-03-29T10:50:58;98215.38;;;11.98;87.61
40730;BME280;26418;50.070;8.436;2024-03-29T10:53:24;98203.50;;;11.70;87.39
40730;BME280;26418;50.070;8.436;2024-03-29T10:55:54;98211.72;;;11.58;88.65
40730;BME280;26418;50.070;8.436;2024-03-29T10:58:22;98204.19;;;11.51;89.37
40730;BME280;26418;50.070;8.436;2024-03-29T11:00:53;98196.66;;;11.44;89.97
40730;BME280;26418;50.070;8.436;2024-03-29T11:06:11;98192.13;;;11.32;91.74
40730;BME280;26418;50.070;8.436;2024-03-29T11:08:38;98188.34;;;11.21;91.31
40730;BME280;26418;50.070;8.436;2024-03-29T11:11:11;98192.09;;;11.16;92.60
40730;BME280;26418;50.070;8.436;2024-03-29T11:16:05;98179.19;;;11.10;94.12
40730;BME280;26418;50.070;8.436;2024-03-29T11:18:32;98179.28;;;11.13;94.41
40730;BME280;26418;50.070;8.436;2024-03-29T11:21:01;98173.94;;;11.17;95.06
40730;BME280;26418;50.070;8.436;2024-03-29T11:23:31;98188.09;;;11.26;95.15
40730;BME280;26418;50.070;8.436;2024-03-29T11:25:57;98185.50;;;11.30;94.54
40730;BME280;26418;50.070;8.436;2024-03-29T11:28:29;98187.66;;;11.24;94.79
40730;BME280;26418;50.070;8.436;2024-03-29T11:31:02;98187.94;;;11.19;95.23
40730;BME280;26418;50.070;8.436;2024-03-29T11:33:32;98194.47;;;11.18;95.59
40730;BME280;26418;50.070;8.436;2024-03-29T11:36:09;98201.28;;;11.12;95.33
40730;BME280;26418;50.070;8.436;2024-03-29T11:38:36;98218.94;;;10.93;96.22
40730;BME280;26418;50.070;8.436;2024-03-29T11:41:21;98240.16;;;10.79;97.26
40730;BME280;26418;50.070;8.436;2024-03-29T11:43:49;98253.47;;;10.72;98.42
40730;BME280;26418;50.070;8.436;2024-03-29T11:46:15;98257.09;;;10.63;99.37
40730;BME280;26418;50.070;8.436;2024-03-29T11:48:44;98257.00;;;10.60;99.91
40730;BME280;26418;50.070;8.436;2024-03-29T11:51:13;98251.63;;;10.47;100.00
40730;BME280;26418;50.070;8.436;2024-03-29T11:53:49;98259.28;;;10.45;100.00
40730;BME280;26418;50.070;8.436;2024-03-29T11:56:18;98243.06;;;10.45;100.00
40730;BME280;26418;50.070;8.436;2024-03-29T11:58:44;98233.72;;;10.43;100.00
40730;BME280;26418;50.070;8.436;2024-03-29T12:01:10;98236.38;;;10.55;100.00
40730;BME280;26418;50.070;8.436;2024-03-29T12:03:40;98234.69;;;10.63;100.00
40730;BME280;26418;50.070;8.436;2024-03-29T12:06:06;98226.53;;;10.75;100.00
40730;BME280;26418;50.070;8.436;2024-03-29T12:08:35;98242.38;;;10.89;100.00
40730;BME280;26418;50.070;8.436;2024-03-29T12:11:03;98246.53;;;10.99;100.00
40730;BME280;26418;50.070;8.436;2024-03-29T12:13:29;98252.81;;;11.03;100.00
40730;BME280;26418;50.070;8.436;2024-03-29T12:15:55;98240.28;;;11.11;100.00
40730;BME280;26418;50.070;8.436;2024-03-29T12:18:22;98224.81;;;11.11;100.00
40730;BME280;26418;50.070;8.436;2024-03-29T12:20:49;98231.28;;;11.07;100.00
40730;BME280;26418;50.070;8.436;2024-03-29T12:23:19;98240.78;;;11.00;100.00
40730;BME280;26418;50.070;8.436;2024-03-29T12:25:46;98232.91;;;10.95;100.00
40730;BME280;26418;50.070;8.436;2024-03-29T12:28:14;98221.38;;;10.98;100.00
40730;BME280;26418;50.070;8.436;2024-03-29T12:30:47;98224.63;;;11.04;100.00
40730;BME280;26418;50.070;8.436;2024-03-29T12:33:20;98216.25;;;11.09;100.00
40730;BME280;26418;50.070;8.436;2024-03-29T12:35:51;98216.34;;;11.13;100.00
40730;BME280;26418;50.070;8.436;2024-03-29T12:38:21;98207.28;;;11.05;100.00
40730;BME280;26418;50.070;8.436;2024-03-29T12:40:48;98226.03;;;11.14;100.00
40730;BME280;26418;50.070;8.436;2024-03-29T12:43:19;98240.03;;;11.16;100.00
40730;BME280;26418;50.070;8.436;2024-03-29T12:45:46;98258.19;;;11.15;100.00
40730;BME280;26418;50.070;8.436;2024-03-29T12:48:19;98262.44;;;11.16;100.00
40730;BME280;26418;50.070;8.436;2024-03-29T12:50:46;98268.66;;;11.17;100.00
40730;BME280;26418;50.070;8.436;2024-03-29T12:53:18;98253.66;;;11.20;100.00
40730;BME280;26418;50.070;8.436;2024-03-29T12:55:44;98269.88;;;11.20;100.00
40730;BME280;26418;50.070;8.436;2024-03-29T12:58:15;98278.44;;;11.22;100.00
40730;BME280;26418;50.070;8.436;2024-03-29T13:00:41;98278.25;;;11.14;100.00
40730;BME280;26418;50.070;8.436;2024-03-29T13:03:13;98291.22;;;11.09;100.00
40730;BME280;26418;50.070;8.436;2024-03-29T13:05:39;98298.53;;;11.08;100.00
40730;BME280;26418;50.070;8.436;2024-03-29T13:08:17;98300.13;;;11.09;100.00
40730;BME280;26418;50.070;8.436;2024-03-29T13:10:43;98296.75;;;11.12;100.00